createdAt,value
2023-04-30T00:00:00.066Z,16.00
2023-04-30T00:01:04.171Z,13.10
2023-04-30T00:02:05.874Z,16.60
2023-04-30T00:03:13.290Z,16.20
2023-04-30T00:04:17.832Z,16.10
2023-04-30T00:05:21.865Z,16.50
2023-04-30T00:06:28.411Z,14.30
2023-04-30T00:07:30.676Z,17.20
2023-04-30T00:08:34.999Z,23.90
2023-04-30T00:09:39.348Z,18.50
2023-04-30T00:10:43.688Z,14.20
2023-04-30T00:11:48.019Z,13.10
2023-04-30T00:12:52.096Z,14.40
2023-04-30T00:13:56.976Z,13.10
2023-04-30T00:15:01.039Z,13.90
2023-04-30T00:16:01.536Z,13.20
2023-04-30T00:17:05.566Z,12.80
2023-04-30T00:18:09.652Z,13.50
2023-04-30T00:19:14.337Z,22.50
2023-04-30T00:20:18.571Z,16.90
2023-04-30T00:21:22.885Z,24.90
2023-04-30T00:22:26.958Z,18.30
2023-04-30T00:23:31.321Z,15.10
2023-04-30T00:24:36.171Z,30.50
2023-04-30T00:25:40.495Z,28.30
2023-04-30T00:26:44.340Z,37.50
2023-04-30T00:27:48.955Z,29.60
2023-04-30T00:28:53.023Z,20.50
2023-04-30T00:29:57.632Z,20.00
2023-04-30T00:31:01.955Z,13.80
2023-04-30T00:32:06.093Z,21.70
2023-04-30T00:33:10.442Z,22.50
2023-04-30T00:34:15.232Z,25.90
2023-04-30T00:35:19.565Z,18.30
2023-04-30T00:36:23.390Z,14.60
2023-04-30T00:37:27.710Z,15.60
2023-04-30T00:38:32.302Z,15.40
2023-04-30T00:39:36.649Z,21.40
2023-04-30T00:40:40.997Z,18.10
2023-04-30T00:41:45.061Z,20.60
2023-04-30T00:42:49.669Z,14.30
2023-04-30T00:43:54.238Z,17.20
2023-04-30T00:44:58.335Z,22.60
2023-04-30T00:46:03.751Z,22.00
2023-04-30T00:47:08.023Z,24.20
2023-04-30T00:48:12.436Z,16.60
2023-04-30T00:49:16.445Z,15.10
2023-04-30T00:50:21.042Z,14.50
2023-04-30T00:51:25.659Z,18.50
2023-04-30T00:52:29.974Z,21.60
2023-04-30T00:53:34.053Z,23.00
2023-04-30T00:54:38.411Z,16.60
2023-04-30T00:55:42.468Z,17.50
2023-04-30T00:56:47.065Z,19.80
2023-04-30T00:57:51.413Z,16.50
2023-04-30T00:58:55.500Z,18.90
2023-04-30T00:59:59.832Z,14.90
2023-04-30T01:01:04.507Z,15.20
2023-04-30T01:02:08.809Z,19.10
2023-04-30T01:03:12.950Z,18.80
2023-04-30T01:04:17.210Z,13.50
2023-04-30T01:05:21.802Z,19.20
2023-04-30T01:06:25.903Z,12.60
2023-04-30T01:07:30.220Z,14.80
2023-04-30T01:08:34.809Z,12.40
2023-04-30T01:09:39.156Z,17.00
2023-04-30T01:10:43.769Z,19.80
2023-04-30T01:11:48.097Z,24.30
2023-04-30T01:12:52.165Z,22.90
2023-04-30T01:13:56.524Z,15.00
2023-04-30T01:15:00.837Z,19.40
2023-04-30T01:16:06.460Z,18.50
2023-04-30T01:17:10.532Z,21.00
2023-04-30T01:18:14.977Z,16.70
2023-04-30T01:19:19.228Z,15.70
2023-04-30T01:20:23.569Z,17.00
2023-04-30T01:21:27.891Z,23.20
2023-04-30T01:22:31.983Z,15.70
2023-04-30T01:23:36.561Z,17.90
2023-04-30T01:24:40.911Z,20.20
2023-04-30T01:25:45.004Z,14.70
2023-04-30T01:26:49.334Z,16.20
2023-04-30T01:27:53.951Z,15.60
2023-04-30T01:28:58.295Z,18.50
2023-04-30T01:30:02.413Z,13.00
2023-04-30T01:31:06.766Z,14.00
2023-04-30T01:32:11.309Z,18.60
2023-04-30T01:33:15.382Z,14.00
2023-04-30T01:34:19.719Z,11.90
2023-04-30T01:35:24.093Z,12.50
2023-04-30T01:36:28.945Z,18.50
2023-04-30T01:37:32.995Z,15.20
2023-04-30T01:38:37.361Z,15.10
2023-04-30T01:39:41.433Z,13.60
2023-04-30T01:40:45.758Z,13.00
2023-04-30T01:41:50.090Z,12.50
2023-04-30T01:42:54.706Z,13.00
2023-04-30T01:43:59.032Z,17.70
2023-04-30T01:45:03.149Z,15.00
2023-04-30T01:46:09.033Z,11.70
2023-04-30T01:47:13.065Z,16.00
2023-04-30T01:48:17.421Z,16.10
2023-04-30T01:49:21.490Z,11.70
2023-04-30T01:50:26.195Z,12.10
2023-04-30T01:51:30.447Z,14.00
2023-04-30T01:52:34.509Z,11.80
2023-04-30T01:53:38.840Z,11.70
2023-04-30T01:54:43.456Z,10.60
2023-04-30T01:55:47.765Z,11.30
2023-04-30T01:56:52.113Z,17.20
2023-04-30T01:57:56.463Z,18.80
2023-04-30T01:59:00.544Z,15.00
2023-04-30T02:00:04.878Z,13.60
2023-04-30T02:01:09.248Z,11.60
2023-04-30T02:02:13.543Z,17.10
2023-04-30T02:03:18.184Z,14.20
2023-04-30T02:04:22.742Z,11.40
2023-04-30T02:05:26.840Z,14.80
2023-04-30T02:06:31.293Z,15.30
2023-04-30T02:07:35.507Z,14.10
2023-04-30T02:08:39.856Z,12.40
2023-04-30T02:09:43.919Z,11.70
2023-04-30T02:10:48.277Z,11.20
2023-04-30T02:11:52.883Z,11.70
2023-04-30T02:12:57.210Z,17.40
2023-04-30T02:14:01.791Z,15.60
2023-04-30T02:15:05.611Z,15.90
2023-04-30T02:16:11.522Z,11.70
2023-04-30T02:17:15.574Z,11.30
2023-04-30T02:18:19.927Z,11.00
2023-04-30T02:19:24.242Z,11.70
2023-04-30T02:20:28.874Z,11.90
2023-04-30T02:21:32.934Z,10.80
2023-04-30T02:22:37.363Z,13.00
2023-04-30T02:23:41.617Z,10.80
2023-04-30T02:24:45.975Z,11.50
2023-04-30T02:25:50.270Z,10.90
2023-04-30T02:26:54.620Z,10.20
2023-04-30T02:27:58.944Z,11.40
2023-04-30T02:29:03.033Z,9.10
2023-04-30T02:30:07.897Z,9.90
2023-04-30T02:31:11.975Z,9.50
2023-04-30T02:32:16.304Z,9.60
2023-04-30T02:33:20.648Z,11.10
2023-04-30T02:34:31.268Z,11.10
2023-04-30T02:35:29.317Z,9.40
2023-04-30T02:36:33.635Z,9.80
2023-04-30T02:37:37.987Z,10.80
2023-04-30T02:38:42.091Z,13.60
2023-04-30T02:39:46.927Z,11.50
2023-04-30T02:40:51.004Z,10.70
2023-04-30T02:41:55.103Z,10.30
2023-04-30T02:42:59.685Z,12.30
2023-04-30T02:44:03.753Z,11.40
2023-04-30T02:45:08.334Z,11.70
2023-04-30T02:46:14.008Z,12.30
2023-04-30T02:47:18.043Z,13.80
2023-04-30T02:48:22.629Z,15.40
2023-04-30T02:49:26.723Z,12.30
2023-04-30T02:50:30.806Z,13.10
2023-04-30T02:51:35.124Z,16.60
2023-04-30T02:52:39.456Z,13.80
2023-04-30T02:53:43.829Z,12.30
2023-04-30T02:54:48.140Z,12.30
2023-04-30T02:55:52.731Z,13.60
2023-04-30T02:56:57.095Z,18.70
2023-04-30T02:58:01.694Z,16.90
2023-04-30T02:59:05.504Z,17.60
2023-04-30T03:00:09.854Z,17.90
2023-04-30T03:01:14.204Z,14.70
2023-04-30T03:02:18.857Z,20.80
2023-04-30T03:03:23.196Z,15.40
2023-04-30T03:04:27.201Z,18.00
2023-04-30T03:05:32.072Z,20.50
2023-04-30T03:06:36.485Z,13.70
2023-04-30T03:07:40.511Z,13.10
2023-04-30T03:08:44.557Z,12.00
2023-04-30T03:09:49.191Z,14.60
2023-04-30T03:10:53.235Z,16.90
2023-04-30T03:11:57.846Z,15.30
2023-04-30T03:13:01.927Z,14.90
2023-04-30T03:14:06.498Z,16.80
2023-04-30T03:15:11.099Z,14.90
2023-04-30T03:16:16.233Z,13.70
2023-04-30T03:17:20.309Z,11.80
2023-04-30T03:18:24.860Z,13.40
2023-04-30T03:19:29.244Z,14.10
2023-04-30T03:20:33.531Z,13.00
2023-04-30T03:21:37.875Z,12.70
2023-04-30T03:22:42.050Z,13.70
2023-04-30T03:23:46.822Z,13.20
2023-04-30T03:24:50.902Z,12.30
2023-04-30T03:25:55.263Z,14.90
2023-04-30T03:26:59.588Z,12.40
2023-04-30T03:28:03.907Z,12.70
2023-04-30T03:29:08.256Z,15.20
2023-04-30T03:30:12.602Z,13.20
2023-04-30T03:31:17.012Z,12.50
2023-04-30T03:32:18.855Z,13.00
2023-04-30T03:33:23.748Z,12.20
2023-04-30T03:34:27.791Z,14.10
2023-04-30T03:35:32.109Z,13.10
2023-04-30T03:36:36.215Z,13.20
2023-04-30T03:37:40.807Z,14.10
2023-04-30T03:38:44.878Z,15.90
2023-04-30T03:39:49.218Z,19.60
2023-04-30T03:40:53.562Z,18.20
2023-04-30T03:41:57.921Z,21.90
2023-04-30T03:43:02.772Z,23.80
2023-04-30T03:44:07.091Z,26.20
2023-04-30T03:45:10.900Z,15.10
2023-04-30T03:46:16.528Z,16.60
2023-04-30T03:47:20.853Z,20.70
2023-04-30T03:48:24.922Z,17.40
2023-04-30T03:49:29.266Z,22.10
2023-04-30T03:50:33.876Z,18.40
2023-04-30T03:51:38.195Z,21.40
2023-04-30T03:52:42.796Z,22.70
2023-04-30T03:53:46.899Z,16.20
2023-04-30T03:54:50.952Z,22.70
2023-04-30T03:55:55.550Z,17.70
2023-04-30T03:56:59.936Z,19.90
2023-04-30T03:58:03.970Z,21.60
2023-04-30T03:59:08.570Z,21.10
2023-04-30T04:00:12.670Z,17.10
2023-04-30T04:01:17.494Z,15.80
2023-04-30T04:02:21.887Z,17.10
2023-04-30T04:03:25.664Z,15.80
2023-04-30T04:04:30.313Z,15.30
2023-04-30T04:05:34.351Z,20.90
2023-04-30T04:06:38.708Z,15.60
2023-04-30T04:07:43.272Z,14.90
2023-04-30T04:08:47.613Z,14.00
2023-04-30T04:09:52.425Z,17.30
2023-04-30T04:10:56.564Z,23.10
2023-04-30T04:12:00.394Z,18.10
2023-04-30T04:13:04.753Z,28.90
2023-04-30T04:14:09.325Z,20.60
2023-04-30T04:15:13.679Z,27.10
2023-04-30T04:16:19.116Z,23.80
2023-04-30T04:17:23.169Z,29.00
2023-04-30T04:18:27.740Z,20.40
2023-04-30T04:19:32.082Z,15.40
2023-04-30T04:20:36.170Z,21.40
2023-04-30T04:21:40.758Z,14.10
2023-04-30T04:22:45.098Z,18.50
2023-04-30T04:23:49.193Z,14.70
2023-04-30T04:24:53.769Z,16.90
2023-04-30T04:25:58.118Z,17.80
2023-04-30T04:27:02.465Z,13.40
2023-04-30T04:28:06.787Z,18.00
2023-04-30T04:29:11.169Z,20.90
2023-04-30T04:30:15.473Z,23.80
2023-04-30T04:31:19.595Z,29.30
2023-04-30T04:32:24.192Z,26.90
2023-04-30T04:33:28.487Z,24.90
2023-04-30T04:34:32.807Z,34.20
2023-04-30T04:35:37.161Z,20.00
2023-04-30T04:36:41.768Z,22.80
2023-04-30T04:37:45.825Z,16.50
2023-04-30T04:38:50.169Z,20.20
2023-04-30T04:39:54.740Z,18.70
2023-04-30T04:40:58.583Z,18.40
2023-04-30T04:42:02.940Z,13.40
2023-04-30T04:43:07.260Z,14.40
2023-04-30T04:44:11.600Z,13.60
2023-04-30T04:45:16.496Z,14.50
2023-04-30T04:46:22.134Z,16.50
2023-04-30T04:48:29.970Z,12.90
2023-04-30T04:49:34.575Z,12.90
2023-04-30T04:50:38.916Z,14.70
2023-04-30T04:51:42.987Z,15.50
2023-04-30T04:53:58.853Z,12.80
2023-04-30T04:55:04.170Z,16.80
2023-04-30T04:56:08.485Z,11.60
2023-04-30T04:57:12.568Z,16.40
2023-04-30T04:58:16.915Z,14.30
2023-04-30T04:59:21.246Z,17.70
2023-04-30T05:00:25.959Z,15.40
2023-04-30T05:01:29.928Z,16.80
2023-04-30T05:02:34.333Z,17.00
2023-04-30T05:03:39.000Z,14.20
2023-04-30T05:04:43.193Z,12.30
2023-04-30T05:05:47.534Z,13.10
2023-04-30T05:06:51.576Z,14.30
2023-04-30T05:07:55.981Z,18.40
2023-04-30T05:09:00.873Z,15.60
2023-04-30T05:10:04.945Z,13.20
2023-04-30T05:11:09.540Z,15.00
2023-04-30T05:12:14.141Z,15.80
2023-04-30T05:13:18.486Z,17.80
2023-04-30T05:14:22.298Z,15.70
2023-04-30T05:15:26.625Z,13.10
2023-04-30T05:16:31.274Z,13.20
2023-04-30T05:17:35.602Z,11.60
2023-04-30T05:18:39.639Z,11.00
2023-04-30T05:19:44.214Z,11.60
2023-04-30T05:20:48.564Z,10.40
2023-04-30T05:21:53.162Z,9.70
2023-04-30T05:22:56.797Z,8.10
2023-04-30T05:23:57.408Z,11.30
2023-04-30T05:25:01.694Z,9.90
2023-04-30T05:26:06.035Z,9.00
2023-04-30T05:27:10.134Z,9.70
2023-04-30T05:28:14.692Z,10.20
2023-04-30T05:29:19.018Z,13.40
2023-04-30T05:30:29.864Z,10.40
2023-04-30T05:31:27.745Z,9.10
2023-04-30T05:32:32.136Z,9.10
2023-04-30T05:33:36.655Z,7.90
2023-04-30T05:34:40.749Z,9.50
2023-04-30T05:35:45.097Z,9.00
2023-04-30T05:36:51.380Z,7.90
2023-04-30T05:37:50.106Z,7.70
2023-04-30T05:38:52.008Z,8.20
2023-04-30T05:39:56.527Z,8.30
2023-04-30T05:41:00.692Z,8.60
2023-04-30T05:42:05.291Z,8.80
2023-04-30T05:43:09.624Z,8.00
2023-04-30T05:44:13.699Z,8.00
2023-04-30T05:45:18.293Z,10.10
2023-04-30T05:46:23.112Z,7.00
2023-04-30T05:47:26.726Z,10.80
2023-04-30T05:48:31.374Z,8.90
2023-04-30T05:49:36.169Z,9.00
2023-04-30T05:50:40.262Z,11.70
2023-04-30T05:51:44.601Z,7.70
2023-04-30T05:52:48.931Z,6.80
2023-04-30T05:53:49.083Z,7.10
2023-04-30T05:54:53.424Z,8.00
2023-04-30T05:55:57.763Z,7.10
2023-04-30T05:57:02.108Z,8.00
2023-04-30T05:58:06.718Z,7.50
2023-04-30T05:59:10.788Z,6.30
2023-04-30T06:00:15.477Z,5.80
2023-04-30T06:01:19.329Z,9.80
2023-04-30T06:02:23.992Z,7.10
2023-04-30T06:03:28.002Z,7.40
2023-04-30T06:04:32.369Z,8.10
2023-04-30T06:05:36.983Z,6.00
2023-04-30T06:06:41.292Z,8.60
2023-04-30T06:07:45.652Z,8.60
2023-04-30T06:08:49.941Z,6.50
2023-04-30T06:09:54.204Z,4.80
2023-04-30T06:10:58.409Z,7.00
2023-04-30T06:12:02.698Z,4.50
2023-04-30T06:13:07.290Z,5.50
2023-04-30T06:14:11.636Z,5.10
2023-04-30T06:15:16.216Z,6.30
2023-04-30T06:16:20.597Z,5.80
2023-04-30T06:17:24.729Z,6.30
2023-04-30T06:18:28.974Z,5.50
2023-04-30T06:19:33.064Z,9.30
2023-04-30T06:20:37.528Z,4.60
2023-04-30T06:21:41.730Z,5.60
2023-04-30T06:22:46.078Z,4.80
2023-04-30T06:23:46.184Z,5.90
2023-04-30T06:24:50.544Z,6.40
2023-04-30T06:25:55.357Z,5.70
2023-04-30T06:26:59.454Z,4.30
2023-04-30T06:28:03.536Z,4.60
2023-04-30T06:29:07.874Z,3.90
2023-04-30T06:30:12.197Z,5.20
2023-04-30T06:31:16.807Z,4.90
2023-04-30T06:32:21.141Z,5.80
2023-04-30T06:33:25.458Z,7.10
2023-04-30T06:34:29.539Z,6.20
2023-04-30T06:35:34.403Z,6.10
2023-04-30T06:36:38.520Z,5.60
2023-04-30T06:37:42.553Z,7.00
2023-04-30T06:38:47.172Z,6.10
2023-04-30T06:39:51.497Z,5.10
2023-04-30T06:40:55.605Z,7.70
2023-04-30T06:42:00.182Z,6.90
2023-04-30T06:43:04.506Z,6.30
2023-04-30T06:44:08.593Z,6.10
2023-04-30T06:45:21.191Z,6.90
2023-04-30T06:46:17.292Z,7.50
2023-04-30T06:47:21.622Z,7.30
2023-04-30T06:48:26.189Z,7.20
2023-04-30T06:49:30.273Z,7.70
2023-04-30T06:50:34.891Z,6.10
2023-04-30T06:51:38.979Z,4.80
2023-04-30T06:52:43.316Z,7.50
2023-04-30T06:53:43.414Z,8.10
2023-04-30T06:54:47.996Z,4.00
2023-04-30T06:55:52.616Z,4.80
2023-04-30T06:56:56.950Z,6.60
2023-04-30T06:58:00.763Z,4.40
2023-04-30T06:59:05.339Z,7.30
2023-04-30T07:00:09.714Z,6.60
2023-04-30T07:01:14.062Z,6.20
2023-04-30T07:02:19.893Z,6.40
2023-04-30T07:03:22.772Z,7.30
2023-04-30T07:04:26.739Z,6.40
2023-04-30T07:05:31.619Z,6.60
2023-04-30T07:06:35.746Z,4.20
2023-04-30T07:07:39.811Z,7.40
2023-04-30T07:08:44.405Z,6.20
2023-04-30T07:09:49.681Z,6.00
2023-04-30T07:10:59.549Z,7.40
2023-04-30T07:11:57.381Z,6.00
2023-04-30T07:13:01.721Z,4.70
2023-04-30T07:14:06.052Z,7.70
2023-04-30T07:15:10.391Z,6.40
2023-04-30T07:16:14.532Z,6.50
2023-04-30T07:17:18.827Z,8.10
2023-04-30T07:18:23.151Z,5.20
2023-04-30T07:19:27.776Z,5.90
2023-04-30T07:20:32.098Z,5.50
2023-04-30T07:21:36.447Z,6.60
2023-04-30T07:22:40.791Z,5.40
2023-04-30T07:23:40.987Z,5.50
2023-04-30T07:24:45.186Z,3.80
2023-04-30T07:25:49.908Z,4.40
2023-04-30T07:26:54.005Z,5.10
2023-04-30T07:27:58.078Z,5.30
2023-04-30T07:29:02.421Z,5.10
2023-04-30T07:30:06.775Z,5.50
2023-04-30T07:31:11.410Z,4.90
2023-04-30T07:32:15.471Z,4.00
2023-04-30T07:33:19.085Z,6.20
2023-04-30T07:34:24.679Z,6.00
2023-04-30T07:35:29.030Z,6.00
2023-04-30T07:36:32.845Z,5.50
2023-04-30T07:37:39.114Z,5.60
2023-04-30T07:38:41.777Z,6.00
2023-04-30T07:39:45.853Z,4.50
2023-04-30T07:40:50.231Z,5.10
2023-04-30T07:41:55.088Z,5.30
2023-04-30T07:42:57.208Z,5.30
2023-04-30T07:44:01.590Z,4.90
2023-04-30T07:45:06.159Z,5.90
2023-04-30T07:46:10.248Z,4.20
2023-04-30T07:47:14.304Z,4.30
2023-04-30T07:48:18.634Z,3.60
2023-04-30T07:49:23.272Z,3.40
2023-04-30T07:50:27.618Z,5.50
2023-04-30T07:51:31.934Z,3.80
2023-04-30T07:52:36.257Z,5.20
2023-04-30T07:53:36.219Z,3.50
2023-04-30T07:54:40.549Z,5.50
2023-04-30T07:55:45.174Z,4.90
2023-04-30T07:56:49.773Z,6.50
2023-04-30T07:57:54.132Z,4.60
2023-04-30T07:58:58.594Z,4.50
2023-04-30T08:00:03.075Z,3.00
2023-04-30T08:01:07.614Z,5.10
2023-04-30T08:02:11.745Z,4.60
2023-04-30T08:03:16.081Z,5.50
2023-04-30T08:04:23.315Z,4.80
2023-04-30T08:05:22.433Z,4.30
2023-04-30T08:06:26.781Z,5.40
2023-04-30T08:07:31.367Z,4.20
2023-04-30T08:08:35.192Z,3.50
2023-04-30T08:09:39.748Z,4.70
2023-04-30T08:10:44.102Z,6.20
2023-04-30T08:11:48.149Z,4.00
2023-04-30T08:12:52.764Z,3.80
2023-04-30T08:13:56.804Z,4.80
2023-04-30T08:15:01.132Z,4.40
2023-04-30T08:16:06.025Z,6.60
2023-04-30T08:17:09.788Z,3.70
2023-04-30T08:18:14.225Z,4.00
2023-04-30T08:19:18.709Z,3.40
2023-04-30T08:20:25.045Z,4.20
2023-04-30T08:21:27.378Z,4.60
2023-04-30T08:22:31.468Z,5.40
2023-04-30T08:23:35.121Z,4.50
2023-04-30T08:24:39.451Z,4.60
2023-04-30T08:25:44.042Z,2.60
2023-04-30T08:26:47.897Z,4.50
2023-04-30T08:27:52.461Z,4.40
2023-04-30T08:28:56.567Z,4.10
2023-04-30T08:30:00.890Z,5.20
2023-04-30T08:31:05.228Z,4.20
2023-04-30T08:32:09.885Z,3.80
2023-04-30T08:33:16.920Z,4.90
2023-04-30T08:34:15.735Z,4.70
2023-04-30T08:35:20.327Z,5.20
2023-04-30T08:36:24.666Z,4.00
2023-04-30T08:37:29.012Z,4.40
2023-04-30T08:38:33.361Z,3.40
2023-04-30T08:39:37.460Z,3.90
2023-04-30T08:41:46.398Z,3.70
2023-04-30T08:42:50.483Z,4.30
2023-04-30T08:43:55.118Z,2.80
2023-04-30T08:44:59.196Z,3.40
2023-04-30T08:46:04.097Z,3.40
2023-04-30T08:47:07.851Z,2.70
2023-04-30T08:48:12.174Z,3.80
2023-04-30T08:49:17.025Z,2.30
2023-04-30T08:50:21.110Z,2.60
2023-04-30T08:51:25.187Z,3.50
2023-04-30T08:52:29.807Z,2.90
2023-04-30T08:53:30.200Z,5.70
2023-04-30T08:54:34.292Z,3.90
2023-04-30T08:55:38.658Z,3.20
2023-04-30T08:56:43.204Z,2.60
2023-04-30T08:57:47.303Z,3.50
2023-04-30T08:58:51.401Z,3.60
2023-04-30T08:59:56.076Z,3.90
2023-04-30T09:01:00.372Z,4.40
2023-04-30T09:02:04.830Z,3.60
2023-04-30T09:03:09.247Z,4.30
2023-04-30T09:04:13.720Z,4.30
2023-04-30T09:05:17.733Z,3.30
2023-04-30T09:06:22.435Z,3.90
2023-04-30T09:07:26.169Z,3.10
2023-04-30T09:08:30.753Z,4.00
2023-04-30T09:09:35.095Z,4.50
2023-04-30T09:10:39.208Z,2.50
2023-04-30T09:11:43.796Z,3.10
2023-04-30T09:12:47.871Z,3.70
2023-04-30T09:13:52.486Z,2.40
2023-04-30T09:14:56.835Z,3.20
2023-04-30T09:16:00.975Z,4.30
2023-04-30T09:17:05.567Z,2.60
2023-04-30T09:18:09.982Z,3.20
2023-04-30T09:19:13.921Z,2.50
2023-04-30T09:20:18.350Z,3.90
2023-04-30T09:21:22.865Z,3.10
2023-04-30T09:22:27.211Z,3.80
2023-04-30T09:23:27.632Z,3.20
2023-04-30T09:24:31.706Z,2.90
2023-04-30T09:25:36.058Z,3.30
2023-04-30T09:26:40.699Z,3.70
2023-04-30T09:27:44.467Z,2.70
2023-04-30T09:28:48.799Z,2.40
2023-04-30T09:29:53.368Z,2.40
2023-04-30T09:30:57.735Z,3.70
2023-04-30T09:32:02.114Z,5.10
2023-04-30T09:33:08.342Z,2.70
2023-04-30T09:34:11.762Z,2.80
2023-04-30T09:35:16.077Z,3.10
2023-04-30T09:36:19.917Z,2.60
2023-04-30T09:37:24.263Z,2.80
2023-04-30T09:38:28.863Z,2.80
2023-04-30T09:39:32.936Z,2.50
2023-04-30T09:40:37.275Z,3.50
2023-04-30T09:41:41.859Z,3.40
2023-04-30T09:42:45.939Z,2.30
2023-04-30T09:43:50.776Z,2.30
2023-04-30T09:44:54.282Z,2.70
2023-04-30T09:45:59.329Z,3.30
2023-04-30T09:46:58.994Z,3.00
2023-04-30T09:48:16.499Z,2.50
2023-04-30T09:49:07.190Z,1.80
2023-04-30T09:50:11.686Z,2.10
2023-04-30T09:51:15.784Z,2.70
2023-04-30T09:52:20.375Z,2.10
2023-04-30T09:53:26.104Z,2.10
2023-04-30T09:54:30.189Z,2.40
2023-04-30T09:55:34.718Z,2.20
2023-04-30T09:56:38.788Z,2.00
2023-04-30T09:57:43.138Z,1.90
2023-04-30T09:59:51.561Z,2.80
2023-04-30T10:00:55.897Z,2.10
2023-04-30T10:02:00.234Z,1.60
2023-04-30T10:03:04.859Z,2.40
2023-04-30T10:04:09.259Z,2.00
2023-04-30T10:05:13.737Z,2.40
2023-04-30T10:06:17.892Z,1.50
2023-04-30T10:07:22.840Z,2.20
2023-04-30T10:08:26.505Z,1.30
2023-04-30T10:09:30.575Z,1.60
2023-04-30T10:10:34.943Z,1.50
2023-04-30T10:11:39.316Z,2.80
2023-04-30T10:12:43.874Z,1.50
2023-04-30T10:13:48.265Z,2.00
2023-04-30T10:14:52.622Z,2.20
2023-04-30T10:15:56.942Z,1.50
2023-04-30T10:17:01.087Z,2.40
2023-04-30T10:18:05.394Z,2.50
2023-04-30T10:19:09.677Z,1.40
2023-04-30T10:20:14.378Z,1.30
2023-04-30T10:21:18.647Z,1.70
2023-04-30T10:22:23.221Z,1.90
2023-04-30T10:23:28.334Z,1.30
2023-04-30T10:24:32.411Z,1.60
2023-04-30T10:25:36.753Z,1.70
2023-04-30T10:26:41.348Z,4.40
2023-04-30T10:27:45.440Z,2.10
2023-04-30T10:28:49.819Z,1.60
2023-04-30T10:29:54.660Z,1.60
2023-04-30T10:30:58.732Z,1.80
2023-04-30T10:32:03.376Z,1.90
2023-04-30T10:33:07.468Z,2.20
2023-04-30T10:34:11.493Z,1.70
2023-04-30T10:35:15.819Z,2.00
2023-04-30T10:36:20.455Z,2.20
2023-04-30T10:37:24.533Z,1.10
2023-04-30T10:38:36.851Z,3.00
2023-04-30T10:39:33.725Z,1.30
2023-04-30T10:40:38.068Z,2.70
2023-04-30T10:41:41.869Z,1.90
2023-04-30T10:42:46.210Z,1.90
2023-04-30T10:43:50.812Z,1.10
2023-04-30T10:44:54.893Z,2.10
2023-04-30T10:45:59.297Z,1.20
2023-04-30T10:47:03.577Z,3.50
2023-04-30T10:48:08.031Z,2.00
2023-04-30T10:49:12.559Z,1.20
2023-04-30T10:50:16.873Z,1.60
2023-04-30T10:51:20.936Z,1.90
2023-04-30T10:52:25.313Z,1.40
2023-04-30T10:53:31.139Z,1.80
2023-04-30T10:54:34.962Z,2.80
2023-04-30T10:55:39.329Z,1.70
2023-04-30T10:56:43.927Z,1.20
2023-04-30T10:57:48.255Z,1.60
2023-04-30T10:58:52.598Z,1.50
2023-04-30T10:59:57.088Z,1.70
2023-04-30T11:01:01.052Z,1.30
2023-04-30T11:02:05.592Z,1.60
2023-04-30T11:03:09.680Z,2.20
2023-04-30T11:04:14.263Z,2.00
2023-04-30T11:05:18.858Z,1.90
2023-04-30T11:06:22.980Z,3.70
2023-04-30T11:07:27.288Z,2.50
2023-04-30T11:08:31.786Z,2.80
2023-04-30T11:09:35.965Z,2.00
2023-04-30T11:10:40.027Z,1.70
2023-04-30T11:11:44.374Z,3.40
2023-04-30T11:12:48.966Z,2.20
2023-04-30T11:13:53.035Z,2.80
2023-04-30T11:14:57.633Z,3.00
2023-04-30T11:16:02.256Z,2.50
2023-04-30T11:17:06.568Z,2.60
2023-04-30T11:18:10.816Z,2.40
2023-04-30T11:19:15.021Z,1.60
2023-04-30T11:20:19.111Z,2.00
2023-04-30T11:21:23.735Z,2.30
2023-04-30T11:22:28.061Z,2.50
2023-04-30T11:24:38.002Z,2.70
2023-04-30T11:25:42.092Z,1.80
2023-04-30T11:26:46.440Z,4.20
2023-04-30T11:27:50.509Z,2.50
2023-04-30T11:28:54.887Z,2.40
2023-04-30T11:29:59.482Z,2.90
2023-04-30T11:31:03.863Z,2.30
2023-04-30T11:32:08.130Z,1.60
2023-04-30T11:33:12.455Z,1.60
2023-04-30T11:34:16.796Z,2.60
2023-04-30T11:35:21.135Z,1.60
2023-04-30T11:36:25.492Z,1.90
2023-04-30T11:37:29.562Z,3.40
2023-04-30T11:38:33.893Z,1.50
2023-04-30T11:39:38.269Z,1.40
2023-04-30T11:40:42.555Z,1.90
2023-04-30T11:41:47.409Z,1.90
2023-04-30T11:42:51.500Z,2.40
2023-04-30T11:43:55.598Z,1.90
2023-04-30T11:44:59.902Z,2.10
2023-04-30T11:46:04.249Z,2.20
2023-04-30T11:47:09.003Z,1.90
2023-04-30T11:48:13.166Z,2.40
2023-04-30T11:49:17.262Z,2.90
2023-04-30T11:50:21.599Z,2.30
2023-04-30T11:51:26.453Z,1.50
2023-04-30T11:52:30.527Z,2.10
2023-04-30T11:53:36.676Z,1.50
2023-04-30T11:54:40.821Z,2.10
2023-04-30T11:55:45.114Z,2.00
2023-04-30T11:56:49.472Z,3.30
2023-04-30T11:57:53.837Z,3.00
2023-04-30T11:58:57.947Z,2.20
2023-04-30T12:00:02.562Z,2.70
2023-04-30T12:01:06.909Z,1.80
2023-04-30T12:02:13.495Z,3.00
2023-04-30T12:03:15.451Z,1.90
2023-04-30T12:04:19.854Z,2.20
2023-04-30T12:05:24.363Z,2.50
2023-04-30T12:06:28.538Z,2.00
2023-04-30T12:07:40.783Z,2.80
2023-04-30T12:08:37.658Z,2.50
2023-04-30T12:09:42.005Z,2.00
2023-04-30T12:10:46.127Z,2.90
2023-04-30T12:11:50.475Z,3.20
2023-04-30T12:12:55.062Z,2.70
2023-04-30T12:13:59.405Z,1.80
2023-04-30T12:15:04.025Z,2.60
2023-04-30T12:16:08.144Z,2.20
2023-04-30T12:17:12.936Z,2.60
2023-04-30T12:18:17.070Z,1.90
2023-04-30T12:19:21.364Z,3.50
2023-04-30T12:20:25.460Z,3.30
2023-04-30T12:21:29.794Z,2.10
2023-04-30T12:22:34.389Z,2.40
2023-04-30T12:23:39.991Z,2.30
2023-04-30T12:24:43.817Z,2.60
2023-04-30T12:25:48.418Z,2.30
2023-04-30T12:26:52.781Z,2.40
2023-04-30T12:27:56.062Z,2.10
2023-04-30T12:29:01.411Z,3.00
2023-04-30T12:30:05.496Z,2.60
2023-04-30T12:31:16.645Z,3.90
2023-04-30T12:32:14.478Z,2.50
2023-04-30T12:33:18.830Z,4.10
2023-04-30T12:34:23.139Z,2.10
2023-04-30T12:35:27.768Z,2.60
2023-04-30T12:36:31.856Z,2.60
2023-04-30T12:37:36.199Z,2.90
2023-04-30T12:38:40.572Z,3.60
2023-04-30T12:39:44.655Z,2.50
2023-04-30T12:40:49.308Z,4.30
2023-04-30T12:41:53.618Z,3.90
2023-04-30T12:42:57.781Z,3.10
2023-04-30T12:44:02.559Z,2.70
2023-04-30T12:45:06.653Z,1.90
2023-04-30T12:46:10.043Z,1.80
2023-04-30T12:47:15.071Z,3.00
2023-04-30T12:48:19.699Z,2.80
2023-04-30T12:49:23.757Z,4.20
2023-04-30T12:50:28.339Z,3.30
2023-04-30T12:51:32.432Z,1.60
2023-04-30T12:52:37.034Z,2.00
2023-04-30T12:53:42.631Z,4.20
2023-04-30T12:54:46.469Z,3.00
2023-04-30T12:55:50.810Z,3.50
2023-04-30T12:56:55.146Z,3.20
2023-04-30T12:57:59.965Z,3.10
2023-04-30T12:59:04.065Z,3.50
2023-04-30T13:00:08.431Z,2.70
2023-04-30T13:01:13.117Z,4.30
2023-04-30T13:02:17.360Z,5.50
2023-04-30T13:03:21.423Z,4.30
2023-04-30T13:04:25.776Z,3.20
2023-04-30T13:05:30.125Z,3.10
2023-04-30T13:06:34.220Z,3.40
2023-04-30T13:07:38.794Z,4.50
2023-04-30T13:08:57.101Z,2.30
2023-04-30T13:09:47.488Z,2.30
2023-04-30T13:10:51.827Z,3.50
2023-04-30T13:11:56.151Z,2.10
2023-04-30T13:13:00.239Z,2.20
2023-04-30T13:14:04.854Z,2.00
2023-04-30T13:15:08.917Z,2.10
2023-04-30T13:16:13.513Z,2.20
2023-04-30T13:17:17.602Z,2.20
2023-04-30T13:18:22.186Z,2.20
2023-04-30T13:19:26.534Z,1.90
2023-04-30T13:20:31.109Z,3.50
2023-04-30T13:21:35.482Z,1.50
2023-04-30T13:22:39.298Z,2.80
2023-04-30T13:23:52.524Z,1.10
2023-04-30T13:24:49.304Z,1.80
2023-04-30T13:25:53.613Z,3.10
2023-04-30T13:26:57.967Z,2.30
2023-04-30T13:28:02.532Z,2.10
2023-04-30T13:29:06.660Z,2.20
2023-04-30T13:30:11.008Z,2.60
2023-04-30T13:31:15.117Z,2.70
2023-04-30T13:32:19.387Z,2.00
2023-04-30T13:33:23.990Z,1.60
2023-04-30T13:34:28.077Z,1.90
2023-04-30T13:35:32.685Z,2.70
2023-04-30T13:36:37.037Z,1.70
2023-04-30T13:37:41.666Z,2.40
2023-04-30T13:38:45.975Z,1.70
2023-04-30T13:39:50.078Z,1.90
2023-04-30T13:40:54.129Z,3.00
2023-04-30T13:41:58.726Z,3.10
2023-04-30T13:43:03.100Z,2.10
2023-04-30T13:44:07.135Z,2.00
2023-04-30T13:45:11.744Z,2.30
2023-04-30T13:46:16.108Z,2.20
2023-04-30T13:47:20.666Z,2.30
2023-04-30T13:48:24.999Z,1.80
2023-04-30T13:49:28.852Z,4.80
2023-04-30T13:50:33.176Z,2.50
2023-04-30T13:51:37.514Z,2.60
2023-04-30T13:52:41.858Z,1.70
2023-04-30T13:53:47.464Z,2.60
2023-04-30T13:54:52.080Z,12.70
2023-04-30T13:55:56.393Z,1.40
2023-04-30T13:57:00.476Z,1.70
2023-04-30T13:58:04.551Z,1.90
2023-04-30T13:59:09.174Z,1.50
2023-04-30T14:00:13.389Z,2.30
2023-04-30T14:01:17.941Z,3.00
2023-04-30T14:02:22.000Z,2.40
2023-04-30T14:03:26.474Z,2.20
2023-04-30T14:04:30.908Z,1.40
2023-04-30T14:05:35.252Z,1.60
2023-04-30T14:06:39.710Z,1.40
2023-04-30T14:07:43.919Z,4.30
2023-04-30T14:08:47.989Z,2.10
2023-04-30T14:09:52.331Z,1.50